首页
METAR-TAF:

METAR-TAF

机场 :

利沃夫, 乌克兰

纬度: 49-49N, 经度: 023-57E, 海拔: 319米

当前天气观测

该预报发布于31分钟前的09:30 UTC
风速4节,风向,在西转西北北转东北之间变化
温度 14°C
湿度 28%
气压 1009 hPa
能见度10公里或以上
1500米以下无云,无积雨云

METAR: UKLL 290930Z 36002MPS 300V030 CAVOK 14/M04 Q1009 R13/D NOSIG

时间: 13:01 (10:01 UTC)

预报

该预报发布于4小时和54分钟前的05:07 UTC
预报有效从29日的 06点(UTC)到 30日的 06点(UTC)
风速2节,风向多变
能见度10公里或以上
多云层高于2000英尺
成为
从 29日的 08点(UTC)到 29日的 09点(UTC)
风速10节,风向西,有时为19节阵风
从 29日的 2200点(UTC)
风速14节,风向西北,有时为23节阵风
能見度: 3000
多云层高于700英尺
轻雾
短暂存在
从 29日的 22点(UTC)到 30日的 06点(UTC)
能見度: 2100
多云层高于300英尺
多云层高于2000英尺, 积雨云.
小阵雨, 雪

TAF: UKLL 290507Z 2906/3006 VRB01MPS 9999 BKN020 TX13/2913Z TN00/3003Z BECMG 2908/2909 28005G10MPS FM292200 32007G12MPS 3000 BR BKN007 TEMPO 2922/3006 2100 -SHRASN BKN003 BKN020CB

超过4000个机场的气象观测和天气预报(METAR&TAF报告)。

可查询的气象台以黄色和红色小点在地图上表示。

将鼠标移到小点上方,可查看气象台名称。

然后点击查看天气观测和预报。

如需切换地图:点击带黑十字的绿色按钮放大地图;点击带横线的绿色按钮缩小地图;或者点击绿色箭头查看邻近地区的地图。


METAR-TAF: